sensor_id;sensor_type;location;lat;lon;timestamp;P1;durP1;ratioP1;P2;durP2;ratioP2
12373;SDS011;6251;51.762;8.660;2023-02-23T00:13:04;24.37;;;16.45;;
12373;SDS011;6251;51.762;8.660;2023-02-23T02:06:23;43.92;;;27.65;;
12373;SDS011;6251;51.762;8.660;2023-02-23T03:49:03;52.17;;;32.47;;
12373;SDS011;6251;51.762;8.660;2023-02-23T03:59:27;54.97;;;30.98;;
12373;SDS011;6251;51.762;8.660;2023-02-23T05:00:41;59.70;;;33.13;;
12373;SDS011;6251;51.762;8.660;2023-02-23T05:10:44;63.03;;;34.60;;
12373;SDS011;6251;51.762;8.660;2023-02-23T05:20:45;66.05;;;35.30;;
12373;SDS011;6251;51.762;8.660;2023-02-23T05:30:46;63.42;;;33.38;;
12373;SDS011;6251;51.762;8.660;2023-02-23T05:40:46;58.40;;;32.88;;
12373;SDS011;6251;51.762;8.660;2023-02-23T05:50:47;61.45;;;34.35;;
12373;SDS011;6251;51.762;8.660;2023-02-23T06:00:48;60.38;;;34.47;;
12373;SDS011;6251;51.762;8.660;2023-02-23T06:10:49;55.12;;;32.67;;
12373;SDS011;6251;51.762;8.660;2023-02-23T06:20:49;65.00;;;35.05;;
12373;SDS011;6251;51.762;8.660;2023-02-23T06:30:51;63.97;;;32.95;;
12373;SDS011;6251;51.762;8.660;2023-02-23T06:40:52;62.17;;;35.13;;
12373;SDS011;6251;51.762;8.660;2023-02-23T06:50:52;67.82;;;37.63;;
12373;SDS011;6251;51.762;8.660;2023-02-23T07:00:54;77.78;;;41.17;;
12373;SDS011;6251;51.762;8.660;2023-02-23T07:10:55;71.50;;;37.65;;
12373;SDS011;6251;51.762;8.660;2023-02-23T07:20:57;64.50;;;34.95;;
12373;SDS011;6251;51.762;8.660;2023-02-23T07:30:58;65.82;;;34.78;;
12373;SDS011;6251;51.762;8.660;2023-02-23T07:40:59;65.30;;;35.38;;
12373;SDS011;6251;51.762;8.660;2023-02-23T07:50:59;66.87;;;35.90;;
12373;SDS011;6251;51.762;8.660;2023-02-23T08:01:00;86.03;;;43.55;;
12373;SDS011;6251;51.762;8.660;2023-02-23T08:11:01;74.40;;;38.80;;
12373;SDS011;6251;51.762;8.660;2023-02-23T08:21:04;75.47;;;37.65;;
12373;SDS011;6251;51.762;8.660;2023-02-23T08:31:07;72.35;;;36.38;;
12373;SDS011;6251;51.762;8.660;2023-02-23T08:41:08;76.05;;;39.30;;
12373;SDS011;6251;51.762;8.660;2023-02-23T08:51:09;106.43;;;46.22;;
12373;SDS011;6251;51.762;8.660;2023-02-23T09:01:16;88.43;;;45.35;;
12373;SDS011;6251;51.762;8.660;2023-02-23T09:11:18;100.22;;;45.40;;
12373;SDS011;6251;51.762;8.660;2023-02-23T09:21:20;93.95;;;45.33;;
12373;SDS011;6251;51.762;8.660;2023-02-23T09:31:24;121.10;;;54.40;;
12373;SDS011;6251;51.762;8.660;2023-02-23T09:51:47;113.00;;;49.75;;
12373;SDS011;6251;51.762;8.660;2023-02-23T10:01:58;110.07;;;50.65;;
12373;SDS011;6251;51.762;8.660;2023-02-23T10:12:08;126.57;;;52.50;;
12373;SDS011;6251;51.762;8.660;2023-02-23T10:22:15;126.00;;;52.97;;
12373;SDS011;6251;51.762;8.660;2023-02-23T10:32:31;138.55;;;59.25;;
12373;SDS011;6251;51.762;8.660;2023-02-23T10:42:44;131.87;;;56.05;;
12373;SDS011;6251;51.762;8.660;2023-02-23T10:52:45;102.95;;;52.60;;
12373;SDS011;6251;51.762;8.660;2023-02-23T11:02:47;92.32;;;48.40;;
12373;SDS011;6251;51.762;8.660;2023-02-23T11:12:48;95.47;;;50.47;;
12373;SDS011;6251;51.762;8.660;2023-02-23T11:22:49;106.70;;;52.08;;
12373;SDS011;6251;51.762;8.660;2023-02-23T11:32:52;140.18;;;53.58;;
12373;SDS011;6251;51.762;8.660;2023-02-23T11:53:13;133.07;;;56.72;;
12373;SDS011;6251;51.762;8.660;2023-02-23T12:03:20;116.68;;;53.17;;
12373;SDS011;6251;51.762;8.660;2023-02-23T12:23:26;114.20;;;50.85;;
12373;SDS011;6251;51.762;8.660;2023-02-23T12:33:41;103.07;;;46.78;;
12373;SDS011;6251;51.762;8.660;2023-02-23T12:43:56;91.80;;;45.30;;
12373;SDS011;6251;51.762;8.660;2023-02-23T12:54:02;91.97;;;42.30;;
12373;SDS011;6251;51.762;8.660;2023-02-23T13:04:07;85.75;;;40.38;;
12373;SDS011;6251;51.762;8.660;2023-02-23T13:14:41;81.00;;;39.33;;
12373;SDS011;6251;51.762;8.660;2023-02-23T13:24:45;85.78;;;42.03;;
12373;SDS011;6251;51.762;8.660;2023-02-23T14:05:41;88.82;;;37.50;;
12373;SDS011;6251;51.762;8.660;2023-02-23T14:15:45;77.28;;;34.22;;
12373;SDS011;6251;51.762;8.660;2023-02-23T14:36:41;77.62;;;29.58;;
12373;SDS011;6251;51.762;8.660;2023-02-23T14:46:36;77.62;;;31.08;;
12373;SDS011;6251;51.762;8.660;2023-02-23T14:56:44;87.68;;;28.87;;
12373;SDS011;6251;51.762;8.660;2023-02-23T15:06:46;68.95;;;25.48;;
12373;SDS011;6251;51.762;8.660;2023-02-23T15:16:47;55.80;;;20.60;;
12373;SDS011;6251;51.762;8.660;2023-02-23T15:26:49;49.40;;;19.92;;
12373;SDS011;6251;51.762;8.660;2023-02-23T15:36:51;60.12;;;22.23;;
12373;SDS011;6251;51.762;8.660;2023-02-23T15:47:05;43.83;;;20.17;;
12373;SDS011;6251;51.762;8.660;2023-02-23T15:57:20;37.25;;;16.48;;
12373;SDS011;6251;51.762;8.660;2023-02-23T16:07:34;46.33;;;16.42;;
12373;SDS011;6251;51.762;8.660;2023-02-23T16:17:43;36.65;;;14.15;;
12373;SDS011;6251;51.762;8.660;2023-02-23T16:27:46;44.13;;;18.55;;
12373;SDS011;6251;51.762;8.660;2023-02-23T16:38:00;39.50;;;14.00;;
12373;SDS011;6251;51.762;8.660;2023-02-23T16:48:01;39.33;;;13.88;;
12373;SDS011;6251;51.762;8.660;2023-02-23T16:58:03;40.60;;;14.15;;
12373;SDS011;6251;51.762;8.660;2023-02-23T17:08:22;49.50;;;15.63;;
12373;SDS011;6251;51.762;8.660;2023-02-23T17:18:27;50.58;;;17.00;;
12373;SDS011;6251;51.762;8.660;2023-02-23T17:28:29;58.35;;;16.25;;
12373;SDS011;6251;51.762;8.660;2023-02-23T17:38:30;52.35;;;18.08;;
12373;SDS011;6251;51.762;8.660;2023-02-23T17:48:34;79.62;;;21.58;;
12373;SDS011;6251;51.762;8.660;2023-02-23T17:58:35;65.65;;;20.15;;
12373;SDS011;6251;51.762;8.660;2023-02-23T18:08:36;77.18;;;22.73;;
12373;SDS011;6251;51.762;8.660;2023-02-23T18:18:39;70.25;;;21.15;;
12373;SDS011;6251;51.762;8.660;2023-02-23T18:28:42;73.82;;;21.67;;
12373;SDS011;6251;51.762;8.660;2023-02-23T18:38:44;87.50;;;23.62;;
12373;SDS011;6251;51.762;8.660;2023-02-23T18:48:47;78.55;;;23.62;;
12373;SDS011;6251;51.762;8.660;2023-02-23T18:58:54;73.80;;;21.65;;
12373;SDS011;6251;51.762;8.660;2023-02-23T19:08:56;78.87;;;22.45;;
12373;SDS011;6251;51.762;8.660;2023-02-23T19:18:59;107.22;;;29.40;;
12373;SDS011;6251;51.762;8.660;2023-02-23T19:29:00;77.10;;;21.50;;
12373;SDS011;6251;51.762;8.660;2023-02-23T19:39:02;76.82;;;21.67;;
12373;SDS011;6251;51.762;8.660;2023-02-23T19:49:15;86.50;;;21.95;;
12373;SDS011;6251;51.762;8.660;2023-02-23T19:59:15;76.28;;;22.02;;
12373;SDS011;6251;51.762;8.660;2023-02-23T20:09:16;80.50;;;21.42;;
12373;SDS011;6251;51.762;8.660;2023-02-23T20:19:16;86.63;;;23.67;;
12373;SDS011;6251;51.762;8.660;2023-02-23T20:29:18;90.03;;;21.40;;
12373;SDS011;6251;51.762;8.660;2023-02-23T20:39:29;88.45;;;23.65;;
12373;SDS011;6251;51.762;8.660;2023-02-23T20:49:30;89.35;;;21.42;;
12373;SDS011;6251;51.762;8.660;2023-02-23T20:59:30;74.05;;;19.10;;
12373;SDS011;6251;51.762;8.660;2023-02-23T21:09:31;88.45;;;21.05;;
12373;SDS011;6251;51.762;8.660;2023-02-23T21:19:32;81.82;;;20.50;;
12373;SDS011;6251;51.762;8.660;2023-02-23T21:29:32;87.00;;;21.12;;
12373;SDS011;6251;51.762;8.660;2023-02-23T21:39:33;21.73;;;8.30;;
12373;SDS011;6251;51.762;8.660;2023-02-23T21:49:34;20.60;;;8.73;;
12373;SDS011;6251;51.762;8.660;2023-02-23T21:59:35;29.60;;;9.48;;
